sensor_id;sensor_type;location;lat;lon;timestamp;P1;durP1;ratioP1;P2;durP2;ratioP2
39994;SDS011;25686;51.908;10.418;2023-07-08T00:00:58;4.35;;;2.60;;
39994;SDS011;25686;51.908;10.418;2023-07-08T00:02:59;4.55;;;2.80;;
39994;SDS011;25686;51.908;10.418;2023-07-08T00:05:00;3.88;;;2.72;;
39994;SDS011;25686;51.908;10.418;2023-07-08T00:07:01;4.10;;;2.45;;
39994;SDS011;25686;51.908;10.418;2023-07-08T00:09:04;3.60;;;2.42;;
39994;SDS011;25686;51.908;10.418;2023-07-08T00:11:10;4.28;;;2.60;;
39994;SDS011;25686;51.908;10.418;2023-07-08T00:13:11;5.78;;;2.70;;
39994;SDS011;25686;51.908;10.418;2023-07-08T00:15:12;3.38;;;2.60;;
39994;SDS011;25686;51.908;10.418;2023-07-08T00:17:13;3.88;;;2.45;;
39994;SDS011;25686;51.908;10.418;2023-07-08T00:19:15;4.30;;;2.60;;
39994;SDS011;25686;51.908;10.418;2023-07-08T00:21:19;6.68;;;2.50;;
39994;SDS011;25686;51.908;10.418;2023-07-08T00:23:20;4.75;;;2.75;;
39994;SDS011;25686;51.908;10.418;2023-07-08T00:25:21;5.22;;;2.85;;
39994;SDS011;25686;51.908;10.418;2023-07-08T00:27:22;2.85;;;2.50;;
39994;SDS011;25686;51.908;10.418;2023-07-08T00:29:23;3.53;;;2.50;;
39994;SDS011;25686;51.908;10.418;2023-07-08T00:31:24;4.68;;;2.67;;
39994;SDS011;25686;51.908;10.418;2023-07-08T00:33:25;4.22;;;2.70;;
39994;SDS011;25686;51.908;10.418;2023-07-08T00:35:33;4.65;;;2.45;;
39994;SDS011;25686;51.908;10.418;2023-07-08T00:37:34;5.05;;;2.67;;
39994;SDS011;25686;51.908;10.418;2023-07-08T00:39:35;5.07;;;2.72;;
39994;SDS011;25686;51.908;10.418;2023-07-08T00:41:37;3.28;;;2.47;;
39994;SDS011;25686;51.908;10.418;2023-07-08T00:43:46;3.38;;;2.88;;
39994;SDS011;25686;51.908;10.418;2023-07-08T00:45:49;9.98;;;2.80;;
39994;SDS011;25686;51.908;10.418;2023-07-08T00:47:51;5.03;;;2.72;;
39994;SDS011;25686;51.908;10.418;2023-07-08T00:49:55;7.13;;;3.05;;
39994;SDS011;25686;51.908;10.418;2023-07-08T00:52:14;4.78;;;2.83;;
39994;SDS011;25686;51.908;10.418;2023-07-08T00:54:17;7.60;;;2.78;;
39994;SDS011;25686;51.908;10.418;2023-07-08T00:56:23;8.02;;;3.00;;
39994;SDS011;25686;51.908;10.418;2023-07-08T00:58:33;4.07;;;2.70;;
39994;SDS011;25686;51.908;10.418;2023-07-08T01:00:35;5.95;;;3.17;;
39994;SDS011;25686;51.908;10.418;2023-07-08T01:02:38;7.00;;;3.25;;
39994;SDS011;25686;51.908;10.418;2023-07-08T01:06:44;6.55;;;2.90;;
39994;SDS011;25686;51.908;10.418;2023-07-08T01:08:47;3.42;;;3.00;;
39994;SDS011;25686;51.908;10.418;2023-07-08T01:10:51;6.28;;;2.88;;
39994;SDS011;25686;51.908;10.418;2023-07-08T01:12:54;3.63;;;2.72;;
39994;SDS011;25686;51.908;10.418;2023-07-08T01:14:55;5.97;;;3.20;;
39994;SDS011;25686;51.908;10.418;2023-07-08T01:16:57;3.60;;;2.97;;
39994;SDS011;25686;51.908;10.418;2023-07-08T01:18:58;7.90;;;3.22;;
39994;SDS011;25686;51.908;10.418;2023-07-08T01:21:06;4.80;;;2.90;;
39994;SDS011;25686;51.908;10.418;2023-07-08T01:23:27;6.55;;;3.20;;
39994;SDS011;25686;51.908;10.418;2023-07-08T01:25:28;8.95;;;3.15;;
39994;SDS011;25686;51.908;10.418;2023-07-08T01:27:29;8.60;;;3.28;;
39994;SDS011;25686;51.908;10.418;2023-07-08T01:29:31;4.25;;;2.97;;
39994;SDS011;25686;51.908;10.418;2023-07-08T01:31:32;3.33;;;2.80;;
39994;SDS011;25686;51.908;10.418;2023-07-08T01:33:33;5.85;;;3.10;;
39994;SDS011;25686;51.908;10.418;2023-07-08T01:35:34;5.72;;;3.20;;
39994;SDS011;25686;51.908;10.418;2023-07-08T01:37:36;5.38;;;3.10;;
39994;SDS011;25686;51.908;10.418;2023-07-08T01:39:37;5.68;;;3.40;;
39994;SDS011;25686;51.908;10.418;2023-07-08T01:41:38;4.72;;;3.28;;
39994;SDS011;25686;51.908;10.418;2023-07-08T01:43:39;5.13;;;3.20;;
39994;SDS011;25686;51.908;10.418;2023-07-08T01:45:40;7.70;;;3.20;;
39994;SDS011;25686;51.908;10.418;2023-07-08T01:47:42;3.83;;;3.00;;
39994;SDS011;25686;51.908;10.418;2023-07-08T01:49:45;4.40;;;2.88;;
39994;SDS011;25686;51.908;10.418;2023-07-08T01:51:47;3.47;;;3.10;;
39994;SDS011;25686;51.908;10.418;2023-07-08T01:53:49;8.00;;;3.15;;
39994;SDS011;25686;51.908;10.418;2023-07-08T01:55:50;4.63;;;3.20;;
39994;SDS011;25686;51.908;10.418;2023-07-08T01:57:52;6.22;;;3.20;;
39994;SDS011;25686;51.908;10.418;2023-07-08T01:59:53;6.53;;;3.10;;
39994;SDS011;25686;51.908;10.418;2023-07-08T02:01:54;3.55;;;2.90;;
39994;SDS011;25686;51.908;10.418;2023-07-08T02:03:55;9.07;;;3.20;;
39994;SDS011;25686;51.908;10.418;2023-07-08T02:05:56;7.53;;;3.95;;
39994;SDS011;25686;51.908;10.418;2023-07-08T02:07:57;4.90;;;3.10;;
39994;SDS011;25686;51.908;10.418;2023-07-08T02:09:58;5.75;;;3.17;;
39994;SDS011;25686;51.908;10.418;2023-07-08T02:11:59;4.00;;;3.35;;
39994;SDS011;25686;51.908;10.418;2023-07-08T02:14:00;6.15;;;3.40;;
39994;SDS011;25686;51.908;10.418;2023-07-08T02:16:03;5.07;;;2.80;;
39994;SDS011;25686;51.908;10.418;2023-07-08T02:18:06;6.50;;;3.40;;
39994;SDS011;25686;51.908;10.418;2023-07-08T02:20:07;5.68;;;3.10;;
39994;SDS011;25686;51.908;10.418;2023-07-08T02:22:08;6.90;;;2.92;;
39994;SDS011;25686;51.908;10.418;2023-07-08T02:24:10;4.97;;;3.25;;
39994;SDS011;25686;51.908;10.418;2023-07-08T02:26:10;10.65;;;3.40;;
39994;SDS011;25686;51.908;10.418;2023-07-08T02:28:11;5.65;;;3.10;;
39994;SDS011;25686;51.908;10.418;2023-07-08T02:30:12;6.28;;;3.28;;
39994;SDS011;25686;51.908;10.418;2023-07-08T02:32:13;4.45;;;2.90;;
39994;SDS011;25686;51.908;10.418;2023-07-08T02:34:14;6.00;;;3.50;;
39994;SDS011;25686;51.908;10.418;2023-07-08T02:36:15;4.68;;;3.25;;
39994;SDS011;25686;51.908;10.418;2023-07-08T02:38:16;4.43;;;3.03;;
39994;SDS011;25686;51.908;10.418;2023-07-08T02:40:17;4.78;;;3.15;;
39994;SDS011;25686;51.908;10.418;2023-07-08T02:42:18;7.60;;;2.70;;
39994;SDS011;25686;51.908;10.418;2023-07-08T02:44:19;3.75;;;2.40;;
39994;SDS011;25686;51.908;10.418;2023-07-08T02:46:20;4.43;;;2.90;;
39994;SDS011;25686;51.908;10.418;2023-07-08T02:48:21;5.82;;;3.55;;
39994;SDS011;25686;51.908;10.418;2023-07-08T02:50:22;6.22;;;3.40;;
39994;SDS011;25686;51.908;10.418;2023-07-08T02:52:24;4.72;;;3.10;;
39994;SDS011;25686;51.908;10.418;2023-07-08T02:54:25;6.47;;;3.10;;
39994;SDS011;25686;51.908;10.418;2023-07-08T02:56:26;8.05;;;3.47;;
39994;SDS011;25686;51.908;10.418;2023-07-08T02:58:27;4.65;;;2.78;;
39994;SDS011;25686;51.908;10.418;2023-07-08T03:00:29;4.53;;;3.10;;
39994;SDS011;25686;51.908;10.418;2023-07-08T03:02:30;3.75;;;2.92;;
39994;SDS011;25686;51.908;10.418;2023-07-08T03:04:31;5.25;;;3.38;;
39994;SDS011;25686;51.908;10.418;2023-07-08T03:06:32;6.05;;;3.35;;
39994;SDS011;25686;51.908;10.418;2023-07-08T03:08:33;4.25;;;3.00;;
39994;SDS011;25686;51.908;10.418;2023-07-08T03:10:34;6.50;;;3.20;;
39994;SDS011;25686;51.908;10.418;2023-07-08T03:12:35;8.57;;;3.60;;
39994;SDS011;25686;51.908;10.418;2023-07-08T03:14:36;5.32;;;3.03;;
39994;SDS011;25686;51.908;10.418;2023-07-08T03:16:37;6.68;;;3.13;;
39994;SDS011;25686;51.908;10.418;2023-07-08T03:18:39;3.97;;;3.20;;
39994;SDS011;25686;51.908;10.418;2023-07-08T03:20:47;4.47;;;3.25;;
39994;SDS011;25686;51.908;10.418;2023-07-08T03:22:48;5.65;;;3.30;;
39994;SDS011;25686;51.908;10.418;2023-07-08T03:24:49;4.45;;;3.03;;
39994;SDS011;25686;51.908;10.418;2023-07-08T03:26:50;3.75;;;3.13;;
39994;SDS011;25686;51.908;10.418;2023-07-08T03:28:54;7.78;;;3.17;;
39994;SDS011;25686;51.908;10.418;2023-07-08T03:30:55;6.50;;;3.30;;
39994;SDS011;25686;51.908;10.418;2023-07-08T03:32:56;3.85;;;3.20;;
39994;SDS011;25686;51.908;10.418;2023-07-08T03:34:57;3.30;;;2.80;;
39994;SDS011;25686;51.908;10.418;2023-07-08T03:36:58;7.00;;;3.20;;
39994;SDS011;25686;51.908;10.418;2023-07-08T03:38:59;4.55;;;3.15;;
39994;SDS011;25686;51.908;10.418;2023-07-08T03:41:01;5.25;;;3.25;;
39994;SDS011;25686;51.908;10.418;2023-07-08T03:43:02;4.13;;;2.88;;
39994;SDS011;25686;51.908;10.418;2023-07-08T03:45:03;5.40;;;2.80;;
39994;SDS011;25686;51.908;10.418;2023-07-08T03:47:04;5.20;;;2.88;;
39994;SDS011;25686;51.908;10.418;2023-07-08T03:49:06;4.13;;;3.00;;
39994;SDS011;25686;51.908;10.418;2023-07-08T03:51:10;3.92;;;2.75;;
39994;SDS011;25686;51.908;10.418;2023-07-08T03:53:14;4.60;;;3.22;;
39994;SDS011;25686;51.908;10.418;2023-07-08T03:55:16;5.80;;;3.13;;
39994;SDS011;25686;51.908;10.418;2023-07-08T03:57:17;4.03;;;3.00;;
39994;SDS011;25686;51.908;10.418;2023-07-08T03:59:18;7.55;;;3.10;;
39994;SDS011;25686;51.908;10.418;2023-07-08T04:01:20;4.72;;;2.75;;
39994;SDS011;25686;51.908;10.418;2023-07-08T04:03:21;5.85;;;3.45;;
39994;SDS011;25686;51.908;10.418;2023-07-08T04:05:22;4.10;;;3.17;;
39994;SDS011;25686;51.908;10.418;2023-07-08T04:07:23;6.07;;;3.25;;
39994;SDS011;25686;51.908;10.418;2023-07-08T04:09:24;8.25;;;3.00;;
39994;SDS011;25686;51.908;10.418;2023-07-08T04:11:25;3.95;;;2.90;;
39994;SDS011;25686;51.908;10.418;2023-07-08T04:13:26;6.57;;;3.00;;
39994;SDS011;25686;51.908;10.418;2023-07-08T04:15:27;6.45;;;3.38;;
39994;SDS011;25686;51.908;10.418;2023-07-08T04:17:29;4.50;;;2.90;;
39994;SDS011;25686;51.908;10.418;2023-07-08T04:19:30;3.80;;;3.17;;
39994;SDS011;25686;51.908;10.418;2023-07-08T04:21:31;5.50;;;3.08;;
39994;SDS011;25686;51.908;10.418;2023-07-08T04:23:32;5.25;;;3.45;;
39994;SDS011;25686;51.908;10.418;2023-07-08T04:25:33;5.18;;;3.38;;
39994;SDS011;25686;51.908;10.418;2023-07-08T04:27:34;5.13;;;3.30;;
39994;SDS011;25686;51.908;10.418;2023-07-08T04:29:35;4.15;;;2.65;;
39994;SDS011;25686;51.908;10.418;2023-07-08T04:31:36;5.10;;;3.03;;
39994;SDS011;25686;51.908;10.418;2023-07-08T04:33:37;5.40;;;3.30;;
39994;SDS011;25686;51.908;10.418;2023-07-08T04:35:38;6.03;;;3.30;;
39994;SDS011;25686;51.908;10.418;2023-07-08T04:37:40;6.93;;;3.42;;
39994;SDS011;25686;51.908;10.418;2023-07-08T04:39:41;4.55;;;3.05;;
39994;SDS011;25686;51.908;10.418;2023-07-08T04:41:42;5.63;;;3.15;;
39994;SDS011;25686;51.908;10.418;2023-07-08T04:43:43;4.35;;;3.10;;
39994;SDS011;25686;51.908;10.418;2023-07-08T04:45:45;7.88;;;3.42;;
39994;SDS011;25686;51.908;10.418;2023-07-08T04:47:49;7.70;;;3.28;;
39994;SDS011;25686;51.908;10.418;2023-07-08T04:49:52;5.53;;;2.97;;
39994;SDS011;25686;51.908;10.418;2023-07-08T04:51:53;4.90;;;2.95;;
39994;SDS011;25686;51.908;10.418;2023-07-08T04:53:54;4.85;;;3.13;;
39994;SDS011;25686;51.908;10.418;2023-07-08T04:55:55;5.20;;;3.22;;
39994;SDS011;25686;51.908;10.418;2023-07-08T04:57:57;5.38;;;3.40;;
39994;SDS011;25686;51.908;10.418;2023-07-08T04:59:58;5.95;;;3.05;;
39994;SDS011;25686;51.908;10.418;2023-07-08T05:01:58;3.90;;;3.05;;
39994;SDS011;25686;51.908;10.418;2023-07-08T05:03:59;9.25;;;3.28;;
39994;SDS011;25686;51.908;10.418;2023-07-08T05:06:01;5.70;;;3.50;;
39994;SDS011;25686;51.908;10.418;2023-07-08T05:08:02;5.80;;;3.40;;
39994;SDS011;25686;51.908;10.418;2023-07-08T05:10:03;5.35;;;3.28;;
39994;SDS011;25686;51.908;10.418;2023-07-08T05:12:04;6.03;;;3.70;;
39994;SDS011;25686;51.908;10.418;2023-07-08T05:14:06;7.03;;;3.58;;
39994;SDS011;25686;51.908;10.418;2023-07-08T05:16:07;5.53;;;3.53;;
39994;SDS011;25686;51.908;10.418;2023-07-08T05:18:08;6.15;;;3.70;;
39994;SDS011;25686;51.908;10.418;2023-07-08T05:20:10;8.85;;;3.40;;
39994;SDS011;25686;51.908;10.418;2023-07-08T05:22:12;6.57;;;2.97;;
39994;SDS011;25686;51.908;10.418;2023-07-08T05:24:13;5.15;;;3.40;;
39994;SDS011;25686;51.908;10.418;2023-07-08T05:26:14;7.40;;;3.42;;
39994;SDS011;25686;51.908;10.418;2023-07-08T05:28:16;7.95;;;3.75;;
39994;SDS011;25686;51.908;10.418;2023-07-08T05:30:17;6.80;;;3.60;;
39994;SDS011;25686;51.908;10.418;2023-07-08T05:32:19;9.15;;;3.38;;
39994;SDS011;25686;51.908;10.418;2023-07-08T05:34:20;6.68;;;3.53;;
39994;SDS011;25686;51.908;10.418;2023-07-08T05:36:21;9.43;;;4.00;;
39994;SDS011;25686;51.908;10.418;2023-07-08T05:38:22;5.40;;;3.40;;
39994;SDS011;25686;51.908;10.418;2023-07-08T05:40:23;8.43;;;3.60;;
39994;SDS011;25686;51.908;10.418;2023-07-08T05:42:24;6.45;;;4.07;;
39994;SDS011;25686;51.908;10.418;2023-07-08T05:44:25;7.05;;;4.10;;
39994;SDS011;25686;51.908;10.418;2023-07-08T05:46:26;7.00;;;3.70;;
39994;SDS011;25686;51.908;10.418;2023-07-08T05:48:27;5.55;;;3.80;;
39994;SDS011;25686;51.908;10.418;2023-07-08T05:50:28;6.20;;;3.80;;
39994;SDS011;25686;51.908;10.418;2023-07-08T05:52:29;10.07;;;4.20;;
39994;SDS011;25686;51.908;10.418;2023-07-08T05:54:30;6.65;;;3.83;;
39994;SDS011;25686;51.908;10.418;2023-07-08T05:56:31;5.07;;;3.53;;
39994;SDS011;25686;51.908;10.418;2023-07-08T05:58:32;9.80;;;4.35;;
39994;SDS011;25686;51.908;10.418;2023-07-08T06:00:33;10.32;;;3.88;;
39994;SDS011;25686;51.908;10.418;2023-07-08T06:02:34;6.63;;;3.55;;
39994;SDS011;25686;51.908;10.418;2023-07-08T06:04:35;6.70;;;3.80;;
39994;SDS011;25686;51.908;10.418;2023-07-08T06:06:36;4.97;;;3.53;;
39994;SDS011;25686;51.908;10.418;2023-07-08T06:08:37;7.63;;;3.90;;
39994;SDS011;25686;51.908;10.418;2023-07-08T06:10:42;7.97;;;3.78;;
39994;SDS011;25686;51.908;10.418;2023-07-08T06:12:43;7.85;;;3.65;;
39994;SDS011;25686;51.908;10.418;2023-07-08T06:14:44;7.50;;;4.07;;
39994;SDS011;25686;51.908;10.418;2023-07-08T06:16:45;8.57;;;3.88;;
39994;SDS011;25686;51.908;10.418;2023-07-08T06:18:46;8.93;;;4.30;;
39994;SDS011;25686;51.908;10.418;2023-07-08T06:20:51;9.43;;;4.20;;
39994;SDS011;25686;51.908;10.418;2023-07-08T06:22:52;11.23;;;3.85;;
39994;SDS011;25686;51.908;10.418;2023-07-08T06:24:53;6.35;;;3.50;;
39994;SDS011;25686;51.908;10.418;2023-07-08T06:26:54;8.68;;;3.95;;
39994;SDS011;25686;51.908;10.418;2023-07-08T06:28:55;7.82;;;4.10;;
39994;SDS011;25686;51.908;10.418;2023-07-08T06:30:56;9.88;;;4.57;;
39994;SDS011;25686;51.908;10.418;2023-07-08T06:32:57;8.60;;;4.88;;
39994;SDS011;25686;51.908;10.418;2023-07-08T06:34:58;7.55;;;4.20;;
39994;SDS011;25686;51.908;10.418;2023-07-08T06:36:59;7.47;;;4.30;;
39994;SDS011;25686;51.908;10.418;2023-07-08T06:39:00;9.73;;;4.65;;
39994;SDS011;25686;51.908;10.418;2023-07-08T06:41:01;9.27;;;4.40;;
39994;SDS011;25686;51.908;10.418;2023-07-08T06:43:02;9.15;;;4.65;;
39994;SDS011;25686;51.908;10.418;2023-07-08T06:45:03;7.25;;;4.60;;
39994;SDS011;25686;51.908;10.418;2023-07-08T06:47:04;7.47;;;4.55;;
39994;SDS011;25686;51.908;10.418;2023-07-08T06:49:05;9.93;;;4.22;;
39994;SDS011;25686;51.908;10.418;2023-07-08T06:51:11;7.65;;;3.97;;
39994;SDS011;25686;51.908;10.418;2023-07-08T06:53:13;10.40;;;4.30;;
39994;SDS011;25686;51.908;10.418;2023-07-08T06:55:14;7.43;;;4.05;;
39994;SDS011;25686;51.908;10.418;2023-07-08T06:57:15;6.50;;;4.07;;
39994;SDS011;25686;51.908;10.418;2023-07-08T06:59:16;6.68;;;4.32;;
39994;SDS011;25686;51.908;10.418;2023-07-08T07:01:17;10.88;;;4.20;;
39994;SDS011;25686;51.908;10.418;2023-07-08T07:03:18;7.90;;;4.20;;
39994;SDS011;25686;51.908;10.418;2023-07-08T07:05:19;9.48;;;3.80;;
39994;SDS011;25686;51.908;10.418;2023-07-08T07:07:20;7.38;;;4.30;;
39994;SDS011;25686;51.908;10.418;2023-07-08T07:09:21;7.85;;;3.75;;
39994;SDS011;25686;51.908;10.418;2023-07-08T07:11:22;9.13;;;3.95;;
39994;SDS011;25686;51.908;10.418;2023-07-08T07:13:22;7.78;;;4.38;;
39994;SDS011;25686;51.908;10.418;2023-07-08T07:15:23;8.48;;;3.88;;
39994;SDS011;25686;51.908;10.418;2023-07-08T07:17:25;8.90;;;3.90;;
39994;SDS011;25686;51.908;10.418;2023-07-08T07:19:27;6.95;;;3.90;;
39994;SDS011;25686;51.908;10.418;2023-07-08T07:21:28;7.80;;;3.88;;
39994;SDS011;25686;51.908;10.418;2023-07-08T07:23:28;7.53;;;4.00;;
39994;SDS011;25686;51.908;10.418;2023-07-08T07:25:29;10.27;;;3.75;;
39994;SDS011;25686;51.908;10.418;2023-07-08T07:27:30;10.00;;;4.10;;
39994;SDS011;25686;51.908;10.418;2023-07-08T07:29:38;8.55;;;3.85;;
39994;SDS011;25686;51.908;10.418;2023-07-08T07:31:39;6.60;;;3.63;;
39994;SDS011;25686;51.908;10.418;2023-07-08T07:33:40;6.75;;;3.58;;
39994;SDS011;25686;51.908;10.418;2023-07-08T07:35:42;8.13;;;3.78;;
39994;SDS011;25686;51.908;10.418;2023-07-08T07:37:43;7.55;;;3.90;;
39994;SDS011;25686;51.908;10.418;2023-07-08T07:39:44;6.85;;;3.97;;
39994;SDS011;25686;51.908;10.418;2023-07-08T07:41:45;10.23;;;3.80;;
39994;SDS011;25686;51.908;10.418;2023-07-08T07:43:46;6.35;;;3.65;;
39994;SDS011;25686;51.908;10.418;2023-07-08T07:45:51;7.97;;;3.85;;
39994;SDS011;25686;51.908;10.418;2023-07-08T07:47:52;8.32;;;3.88;;
39994;SDS011;25686;51.908;10.418;2023-07-08T07:49:53;5.97;;;3.63;;
39994;SDS011;25686;51.908;10.418;2023-07-08T07:51:54;6.80;;;3.88;;
39994;SDS011;25686;51.908;10.418;2023-07-08T07:53:55;6.55;;;3.80;;
39994;SDS011;25686;51.908;10.418;2023-07-08T07:55:59;8.52;;;3.65;;
39994;SDS011;25686;51.908;10.418;2023-07-08T07:58:01;10.82;;;3.67;;
39994;SDS011;25686;51.908;10.418;2023-07-08T08:00:02;10.32;;;3.88;;
39994;SDS011;25686;51.908;10.418;2023-07-08T08:02:03;5.00;;;3.60;;
39994;SDS011;25686;51.908;10.418;2023-07-08T08:04:04;5.95;;;3.70;;
39994;SDS011;25686;51.908;10.418;2023-07-08T08:06:05;9.98;;;3.92;;
39994;SDS011;25686;51.908;10.418;2023-07-08T08:08:06;5.03;;;3.67;;
39994;SDS011;25686;51.908;10.418;2023-07-08T08:10:07;6.57;;;3.72;;
39994;SDS011;25686;51.908;10.418;2023-07-08T08:12:09;5.95;;;3.60;;
39994;SDS011;25686;51.908;10.418;2023-07-08T08:14:10;8.15;;;3.63;;
39994;SDS011;25686;51.908;10.418;2023-07-08T08:16:11;7.00;;;3.72;;
39994;SDS011;25686;51.908;10.418;2023-07-08T08:18:12;9.57;;;4.20;;
39994;SDS011;25686;51.908;10.418;2023-07-08T08:20:13;3.83;;;3.47;;
39994;SDS011;25686;51.908;10.418;2023-07-08T08:22:14;9.43;;;3.60;;
39994;SDS011;25686;51.908;10.418;2023-07-08T08:24:16;5.78;;;3.60;;
39994;SDS011;25686;51.908;10.418;2023-07-08T08:26:17;8.30;;;3.70;;
39994;SDS011;25686;51.908;10.418;2023-07-08T08:28:18;6.28;;;3.75;;
39994;SDS011;25686;51.908;10.418;2023-07-08T08:30:19;6.80;;;3.65;;
39994;SDS011;25686;51.908;10.418;2023-07-08T08:32:20;9.15;;;3.60;;
39994;SDS011;25686;51.908;10.418;2023-07-08T08:34:21;4.43;;;3.70;;
39994;SDS011;25686;51.908;10.418;2023-07-08T08:36:22;6.38;;;3.60;;
39994;SDS011;25686;51.908;10.418;2023-07-08T08:38:23;6.93;;;3.47;;
39994;SDS011;25686;51.908;10.418;2023-07-08T08:40:24;8.68;;;3.90;;
39994;SDS011;25686;51.908;10.418;2023-07-08T08:42:30;5.00;;;3.70;;
39994;SDS011;25686;51.908;10.418;2023-07-08T08:44:34;6.70;;;3.67;;
39994;SDS011;25686;51.908;10.418;2023-07-08T08:46:47;4.40;;;3.53;;
39994;SDS011;25686;51.908;10.418;2023-07-08T08:49:01;7.72;;;3.45;;
39994;SDS011;25686;51.908;10.418;2023-07-08T08:51:05;7.78;;;3.45;;
39994;SDS011;25686;51.908;10.418;2023-07-08T08:53:08;5.90;;;3.47;;
39994;SDS011;25686;51.908;10.418;2023-07-08T08:55:12;7.53;;;3.75;;
39994;SDS011;25686;51.908;10.418;2023-07-08T08:59:37;7.53;;;3.65;;
39994;SDS011;25686;51.908;10.418;2023-07-08T09:01:39;7.85;;;4.13;;
39994;SDS011;25686;51.908;10.418;2023-07-08T09:03:57;6.65;;;4.18;;
39994;SDS011;25686;51.908;10.418;2023-07-08T09:05:59;11.90;;;3.78;;
39994;SDS011;25686;51.908;10.418;2023-07-08T09:08:16;6.28;;;3.70;;
39994;SDS011;25686;51.908;10.418;2023-07-08T09:10:21;7.25;;;3.25;;
39994;SDS011;25686;51.908;10.418;2023-07-08T09:12:26;5.72;;;3.47;;
39994;SDS011;25686;51.908;10.418;2023-07-08T09:14:28;7.78;;;3.90;;
39994;SDS011;25686;51.908;10.418;2023-07-08T09:16:41;4.70;;;3.78;;
39994;SDS011;25686;51.908;10.418;2023-07-08T09:18:49;4.60;;;3.78;;
39994;SDS011;25686;51.908;10.418;2023-07-08T09:20:53;4.60;;;3.70;;
39994;SDS011;25686;51.908;10.418;2023-07-08T09:23:01;5.72;;;3.70;;
39994;SDS011;25686;51.908;10.418;2023-07-08T09:27:20;5.03;;;3.50;;
39994;SDS011;25686;51.908;10.418;2023-07-08T09:29:21;6.85;;;3.90;;
39994;SDS011;25686;51.908;10.418;2023-07-08T09:33:24;6.88;;;3.75;;
39994;SDS011;25686;51.908;10.418;2023-07-08T09:35:25;5.20;;;3.75;;
39994;SDS011;25686;51.908;10.418;2023-07-08T09:37:28;5.22;;;3.60;;
39994;SDS011;25686;51.908;10.418;2023-07-08T09:39:29;5.72;;;3.83;;
39994;SDS011;25686;51.908;10.418;2023-07-08T09:41:31;5.32;;;3.50;;
39994;SDS011;25686;51.908;10.418;2023-07-08T09:43:37;4.00;;;3.60;;
39994;SDS011;25686;51.908;10.418;2023-07-08T09:45:40;5.35;;;3.50;;
39994;SDS011;25686;51.908;10.418;2023-07-08T09:47:42;7.93;;;3.80;;
39994;SDS011;25686;51.908;10.418;2023-07-08T09:49:45;3.67;;;3.28;;
39994;SDS011;25686;51.908;10.418;2023-07-08T09:51:47;6.68;;;3.75;;
39994;SDS011;25686;51.908;10.418;2023-07-08T09:53:50;6.95;;;3.85;;
39994;SDS011;25686;51.908;10.418;2023-07-08T09:55:51;6.68;;;3.28;;
39994;SDS011;25686;51.908;10.418;2023-07-08T09:57:52;6.78;;;3.78;;
39994;SDS011;25686;51.908;10.418;2023-07-08T09:59:58;7.60;;;3.40;;
39994;SDS011;25686;51.908;10.418;2023-07-08T10:02:03;6.18;;;3.75;;
39994;SDS011;25686;51.908;10.418;2023-07-08T10:04:13;5.57;;;3.60;;
39994;SDS011;25686;51.908;10.418;2023-07-08T10:06:17;3.67;;;3.38;;
39994;SDS011;25686;51.908;10.418;2023-07-08T10:08:21;7.05;;;3.83;;
39994;SDS011;25686;51.908;10.418;2023-07-08T10:10:25;5.53;;;3.80;;
39994;SDS011;25686;51.908;10.418;2023-07-08T10:12:27;5.60;;;3.50;;
39994;SDS011;25686;51.908;10.418;2023-07-08T10:14:30;6.15;;;3.20;;
39994;SDS011;25686;51.908;10.418;2023-07-08T10:16:33;4.50;;;3.30;;
39994;SDS011;25686;51.908;10.418;2023-07-08T10:18:34;5.85;;;3.85;;
39994;SDS011;25686;51.908;10.418;2023-07-08T10:22:57;8.50;;;3.72;;
39994;SDS011;25686;51.908;10.418;2023-07-08T10:25:11;4.43;;;3.90;;
39994;SDS011;25686;51.908;10.418;2023-07-08T10:31:41;8.38;;;3.70;;
39994;SDS011;25686;51.908;10.418;2023-07-08T10:44:44;10.23;;;4.00;;
39994;SDS011;25686;51.908;10.418;2023-07-08T11:01:59;5.18;;;3.92;;
39994;SDS011;25686;51.908;10.418;2023-07-08T11:04:50;5.85;;;3.80;;
39994;SDS011;25686;51.908;10.418;2023-07-08T11:06:26;8.15;;;4.03;;
39994;SDS011;25686;51.908;10.418;2023-07-08T11:08:32;5.22;;;3.90;;
39994;SDS011;25686;51.908;10.418;2023-07-08T11:10:38;4.32;;;3.92;;
39994;SDS011;25686;51.908;10.418;2023-07-08T11:12:48;6.38;;;4.10;;
39994;SDS011;25686;51.908;10.418;2023-07-08T11:14:54;4.40;;;4.00;;
39994;SDS011;25686;51.908;10.418;2023-07-08T11:19:19;5.80;;;4.25;;
39994;SDS011;25686;51.908;10.418;2023-07-08T11:25:36;6.47;;;4.07;;
39994;SDS011;25686;51.908;10.418;2023-07-08T11:27:38;6.40;;;3.97;;
39994;SDS011;25686;51.908;10.418;2023-07-08T11:29:53;7.47;;;3.92;;
39994;SDS011;25686;51.908;10.418;2023-07-08T11:31:55;4.95;;;4.00;;
39994;SDS011;25686;51.908;10.418;2023-07-08T11:33:56;9.65;;;4.18;;
39994;SDS011;25686;51.908;10.418;2023-07-08T11:35:57;6.03;;;4.10;;
39994;SDS011;25686;51.908;10.418;2023-07-08T11:38:01;6.65;;;4.13;;
39994;SDS011;25686;51.908;10.418;2023-07-08T11:40:19;5.75;;;3.50;;
39994;SDS011;25686;51.908;10.418;2023-07-08T11:42:23;9.23;;;4.20;;
39994;SDS011;25686;51.908;10.418;2023-07-08T11:44:24;4.75;;;3.42;;
39994;SDS011;25686;51.908;10.418;2023-07-08T11:46:26;6.18;;;3.92;;
39994;SDS011;25686;51.908;10.418;2023-07-08T11:48:34;7.28;;;3.88;;
39994;SDS011;25686;51.908;10.418;2023-07-08T11:50:37;4.47;;;4.07;;
39994;SDS011;25686;51.908;10.418;2023-07-08T11:52:49;5.82;;;3.92;;
39994;SDS011;25686;51.908;10.418;2023-07-08T11:54:55;6.13;;;3.83;;
39994;SDS011;25686;51.908;10.418;2023-07-08T11:59:17;6.45;;;4.10;;
39994;SDS011;25686;51.908;10.418;2023-07-08T12:01:30;7.65;;;4.15;;
39994;SDS011;25686;51.908;10.418;2023-07-08T12:05:34;7.32;;;4.35;;
39994;SDS011;25686;51.908;10.418;2023-07-08T12:07:46;6.47;;;4.22;;
39994;SDS011;25686;51.908;10.418;2023-07-08T12:09:48;7.22;;;4.22;;
39994;SDS011;25686;51.908;10.418;2023-07-08T12:11:51;4.15;;;3.60;;
39994;SDS011;25686;51.908;10.418;2023-07-08T12:13:54;5.82;;;4.55;;
39994;SDS011;25686;51.908;10.418;2023-07-08T12:15:56;3.92;;;3.53;;
39994;SDS011;25686;51.908;10.418;2023-07-08T12:18:39;7.88;;;4.07;;
39994;SDS011;25686;51.908;10.418;2023-07-08T12:20:22;7.57;;;4.07;;
39994;SDS011;25686;51.908;10.418;2023-07-08T12:22:24;6.53;;;3.85;;
39994;SDS011;25686;51.908;10.418;2023-07-08T12:24:25;6.88;;;4.55;;
39994;SDS011;25686;51.908;10.418;2023-07-08T12:26:27;5.85;;;4.47;;
39994;SDS011;25686;51.908;10.418;2023-07-08T12:28:28;5.75;;;4.00;;
39994;SDS011;25686;51.908;10.418;2023-07-08T12:30:30;6.45;;;4.38;;
39994;SDS011;25686;51.908;10.418;2023-07-08T12:32:31;7.25;;;4.15;;
39994;SDS011;25686;51.908;10.418;2023-07-08T12:34:33;4.63;;;3.97;;
39994;SDS011;25686;51.908;10.418;2023-07-08T12:36:34;5.32;;;4.00;;
39994;SDS011;25686;51.908;10.418;2023-07-08T12:38:37;5.15;;;4.15;;
39994;SDS011;25686;51.908;10.418;2023-07-08T12:40:38;6.82;;;4.38;;
39994;SDS011;25686;51.908;10.418;2023-07-08T12:42:41;7.25;;;4.20;;
39994;SDS011;25686;51.908;10.418;2023-07-08T12:44:42;5.00;;;4.03;;
39994;SDS011;25686;51.908;10.418;2023-07-08T12:46:44;7.93;;;4.45;;
39994;SDS011;25686;51.908;10.418;2023-07-08T12:48:46;5.70;;;4.20;;
39994;SDS011;25686;51.908;10.418;2023-07-08T12:50:47;6.72;;;4.40;;
39994;SDS011;25686;51.908;10.418;2023-07-08T12:52:50;5.88;;;4.25;;
39994;SDS011;25686;51.908;10.418;2023-07-08T12:54:51;7.07;;;4.25;;
39994;SDS011;25686;51.908;10.418;2023-07-08T12:56:52;5.15;;;4.43;;
39994;SDS011;25686;51.908;10.418;2023-07-08T12:58:56;9.25;;;4.50;;